Time;durP1;ratioP1;P1;durP2;ratioP2;P2;SDS_P1;SDS_P2;PMS_P1;PMS_P2;Temp;Humidity;BMP_temperature;BMP_pressure;BME280_temperature;BME280_humidity;BME280_pressure;Samples;Min_cycle;Max_cycle;Signal;HPM_P1;HPM_P2
2023/03/25 00:01:32;;;;;;;17.88;2.15;;;;;;;;;;5052349;28;20084;-61
2023/03/25 00:03:59;;;;;;;10.63;1.73;;;;;;;;;;5051820;28;20048;-61
2023/03/25 00:06:26;;;;;;;11.20;2.38;;;;;;;;;;5052400;28;20118;-61
2023/03/25 00:08:53;;;;;;;10.60;2.00;;;;;;;;;;5052277;28;20041;-61
2023/03/25 00:11:19;;;;;;;15.82;2.30;;;;;;;;;;5051537;28;20491;-61
2023/03/25 00:13:46;;;;;;;11.80;2.20;;;;;;;;;;5051960;28;20368;-61
2023/03/25 00:16:13;;;;;;;11.02;1.98;;;;;;;;;;5052024;28;20041;-61
2023/03/25 00:18:39;;;;;;;11.73;1.92;;;;;;;;;;5051603;28;20041;-61
2023/03/25 00:21:09;;;;;;;12.20;1.80;;;;;;;;;;5052176;28;20521;-61
2023/03/25 00:23:36;;;;;;;8.93;2.05;;;;;;;;;;5051726;28;20139;-61
2023/03/25 00:26:02;;;;;;;10.80;2.20;;;;;;;;;;5051396;28;20645;-61
2023/03/25 00:28:29;;;;;;;12.05;2.10;;;;;;;;;;5052108;28;20048;-61
2023/03/25 00:30:58;;;;;;;10.52;1.80;;;;;;;;;;5051706;28;20079;-61
2023/03/25 00:33:24;;;;;;;10.93;2.03;;;;;;;;;;5051334;28;20045;-61
2023/03/25 00:35:53;;;;;;;13.25;2.08;;;;;;;;;;5051584;28;20045;-61
2023/03/25 00:38:19;;;;;;;12.85;2.75;;;;;;;;;;5051893;28;20120;-61
2023/03/25 00:40:45;;;;;;;14.90;2.22;;;;;;;;;;5050939;28;20519;-61
2023/03/25 00:43:13;;;;;;;11.75;2.20;;;;;;;;;;5051569;28;20098;-61
2023/03/25 00:45:39;;;;;;;9.25;2.13;;;;;;;;;;5033669;28;20053;-61
2023/03/25 00:48:05;;;;;;;10.48;2.20;;;;;;;;;;5050612;28;20041;-61
2023/03/25 00:50:31;;;;;;;14.43;2.38;;;;;;;;;;5051486;28;20461;-61
2023/03/25 00:52:57;;;;;;;15.40;3.47;;;;;;;;;;5051737;28;20050;-61
2023/03/25 00:55:23;;;;;;;16.80;3.58;;;;;;;;;;5050768;28;20076;-61
2023/03/25 00:57:49;;;;;;;21.23;7.78;;;;;;;;;;5051598;28;20076;-61
2023/03/25 01:00:16;;;;;;;16.23;4.63;;;;;;;;;;5050878;28;20048;-61
2023/03/25 01:02:44;;;;;;;14.18;3.47;;;;;;;;;;5050569;28;20041;-61
2023/03/25 01:05:11;;;;;;;18.67;5.82;;;;;;;;;;5051076;28;20758;-61
2023/03/25 01:07:38;;;;;;;16.65;2.60;;;;;;;;;;5051305;28;20498;-61
2023/03/25 01:10:04;;;;;;;16.70;2.90;;;;;;;;;;5050610;28;20044;-61
2023/03/25 01:12:30;;;;;;;14.25;2.53;;;;;;;;;;5051100;28;20052;-61
2023/03/25 01:14:56;;;;;;;13.43;3.13;;;;;;;;;;5051146;28;20484;-61
2023/03/25 01:17:22;;;;;;;10.73;2.58;;;;;;;;;;5050503;28;20481;-61
2023/03/25 01:19:49;;;;;;;13.63;2.20;;;;;;;;;;5050989;28;20045;-61
2023/03/25 01:22:15;;;;;;;17.17;2.33;;;;;;;;;;5050719;28;20527;-62
2023/03/25 01:24:41;;;;;;;13.77;2.65;;;;;;;;;;5049787;28;20091;-62
2023/03/25 01:27:07;;;;;;;13.77;2.78;;;;;;;;;;5050459;28;20045;-62
2023/03/25 01:29:33;;;;;;;16.25;2.65;;;;;;;;;;5050792;28;20441;-62
2023/03/25 01:31:59;;;;;;;14.88;3.00;;;;;;;;;;5050225;28;20075;-62
2023/03/25 01:34:25;;;;;;;20.30;3.13;;;;;;;;;;5050901;28;20125;-62
2023/03/25 01:36:53;;;;;;;15.32;2.78;;;;;;;;;;5050931;28;20076;-62
2023/03/25 01:39:20;;;;;;;17.27;3.10;;;;;;;;;;5050344;28;20048;-62
2023/03/25 01:41:47;;;;;;;11.52;2.97;;;;;;;;;;5050953;28;20037;-62
2023/03/25 01:44:19;;;;;;;15.65;3.55;;;;;;;;;;5050449;28;20045;-62
2023/03/25 01:46:48;;;;;;;;;;;;;;;;;;5050427;28;20127;-62
2023/03/25 01:49:22;;;;;;;13.77;2.92;;;;;;;;;;5050640;28;19924;-62
2023/03/25 01:51:50;;;;;;;16.35;2.85;;;;;;;;;;5050805;28;20048;-62
2023/03/25 01:54:16;;;;;;;18.20;2.72;;;;;;;;;;5050109;28;20063;-62
2023/03/25 01:56:45;;;;;;;14.02;2.95;;;;;;;;;;5050662;28;20041;-61
2023/03/25 01:59:12;;;;;;;11.80;2.95;;;;;;;;;;5050485;28;20037;-61
2023/03/25 02:01:38;;;;;;;12.98;3.05;;;;;;;;;;5049925;28;20183;-61
2023/03/25 02:04:11;;;;;;;17.52;2.65;;;;;;;;;;5050577;28;20033;-61
2023/03/25 02:06:40;;;;;;;19.73;3.38;;;;;;;;;;5050594;28;20515;-61
2023/03/25 02:09:08;;;;;;;18.00;3.38;;;;;;;;;;5049767;28;20048;-61
2023/03/25 02:11:34;;;;;;;18.98;3.03;;;;;;;;;;5050617;28;20045;-61
2023/03/25 02:14:03;;;;;;;14.35;2.83;;;;;;;;;;5050679;28;20045;-61
2023/03/25 02:16:29;;;;;;;17.77;2.92;;;;;;;;;;5049522;28;20056;-61
2023/03/25 02:18:59;;;;;;;21.27;3.28;;;;;;;;;;5050559;28;20045;-61
2023/03/25 02:21:45;;;;;;;15.88;3.47;;;;;;;;;;5050350;28;20098;-61
2023/03/25 02:24:12;;;;;;;17.80;3.28;;;;;;;;;;5049584;28;20095;-61
2023/03/25 02:26:41;;;;;;;17.30;3.20;;;;;;;;;;5049860;28;20384;-61
2023/03/25 02:29:26;;;;;;;13.88;3.35;;;;;;;;;;5050089;28;20048;-61
2023/03/25 02:31:55;;;;;;;19.58;3.90;;;;;;;;;;5049227;28;20051;-61
2023/03/25 02:34:21;;;;;;;19.13;3.63;;;;;;;;;;5050181;28;20106;-61
2023/03/25 02:37:00;;;;;;;16.40;3.53;;;;;;;;;;5051630;28;20033;-61
2023/03/25 02:39:26;;;;;;;18.35;3.80;;;;;;;;;;5053356;28;20044;-61
2023/03/25 02:42:05;;;;;;;19.30;3.42;;;;;;;;;;5053940;28;20045;-61
2023/03/25 02:44:40;;;;;;;18.95;3.35;;;;;;;;;;5053885;28;20041;-61
2023/03/25 02:47:12;;;;;;;20.63;3.00;;;;;;;;;;5052958;28;20156;-61
2023/03/25 02:49:42;;;;;;;18.50;3.28;;;;;;;;;;5053786;28;20045;-61
2023/03/25 02:52:14;;;;;;;15.75;3.20;;;;;;;;;;5053724;28;20052;-61
2023/03/25 02:54:41;;;;;;;17.30;3.10;;;;;;;;;;5053214;28;20368;-61
2023/03/25 02:57:08;;;;;;;18.45;4.05;;;;;;;;;;5053700;28;20037;-61
2023/03/25 02:59:37;;;;;;;18.88;2.97;;;;;;;;;;5053507;28;20041;-61
2023/03/25 03:02:06;;;;;;;21.00;3.65;;;;;;;;;;5052785;28;20067;-61
2023/03/25 03:04:32;;;;;;;17.70;3.60;;;;;;;;;;5053534;28;20044;-61
2023/03/25 03:06:59;;;;;;;19.90;3.90;;;;;;;;;;5053566;28;20474;-61
2023/03/25 03:09:46;;;;;;;16.52;3.38;;;;;;;;;;5052735;28;20049;-61
2023/03/25 03:12:27;;;;;;;19.45;3.47;;;;;;;;;;5053362;28;20088;-61
2023/03/25 03:14:53;;;;;;;22.90;3.53;;;;;;;;;;5052712;28;20041;-61
2023/03/25 03:17:28;;;;;;;17.30;3.47;;;;;;;;;;5053087;28;20096;-61
2023/03/25 03:20:03;;;;;;;18.05;3.67;;;;;;;;;;5053331;28;20547;-61
2023/03/25 03:22:40;;;;;;;20.83;3.17;;;;;;;;;;5052133;28;20061;-61
2023/03/25 03:25:20;;;;;;;26.25;3.70;;;;;;;;;;5053228;28;20076;-61
2023/03/25 03:27:55;;;;;;;21.83;3.20;;;;;;;;;;5053043;28;20119;-61
2023/03/25 03:30:26;;;;;;;18.75;3.28;;;;;;;;;;5052586;28;20411;-61
2023/03/25 03:32:54;;;;;;;19.50;3.35;;;;;;;;;;5034926;28;20041;-61
2023/03/25 03:35:23;;;;;;;13.60;3.35;;;;;;;;;;5052839;28;20483;-61
2023/03/25 03:37:52;;;;;;;30.48;3.70;;;;;;;;;;5052174;28;20045;-61
2023/03/25 03:40:21;;;;;;;21.42;3.75;;;;;;;;;;5052847;28;20044;-61
2023/03/25 03:42:53;;;;;;;19.27;3.63;;;;;;;;;;5053019;28;20052;-61
2023/03/25 03:45:19;;;;;;;;;;;;;;;;;;5052737;28;20128;-61
2023/03/25 03:47:47;;;;;;;20.08;3.05;;;;;;;;;;5052086;28;20397;-61
2023/03/25 03:50:19;;;;;;;21.42;3.35;;;;;;;;;;5052508;28;20040;-61
2023/03/25 03:52:49;;;;;;;16.42;3.20;;;;;;;;;;5052099;28;20140;-61
2023/03/25 03:55:27;;;;;;;19.08;3.50;;;;;;;;;;5052629;28;20080;-61
2023/03/25 03:57:56;;;;;;;20.98;3.88;;;;;;;;;;5052182;28;20045;-61
2023/03/25 04:00:31;;;;;;;19.75;3.88;;;;;;;;;;5052049;28;20072;-61
2023/03/25 04:03:04;;;;;;;19.67;3.78;;;;;;;;;;5052694;28;20045;-61
2023/03/25 04:05:31;;;;;;;20.75;4.38;;;;;;;;;;5052740;28;20044;-61
2023/03/25 04:07:58;;;;;;;16.13;3.42;;;;;;;;;;5051894;28;20436;-61
2023/03/25 04:10:28;;;;;;;23.30;4.57;;;;;;;;;;5052352;28;20048;-61
2023/03/25 04:12:57;;;;;;;19.73;4.22;;;;;;;;;;5052495;28;20037;-61
2023/03/25 04:15:23;;;;;;;19.15;3.92;;;;;;;;;;5051297;28;20040;-61
2023/03/25 04:17:50;;;;;;;21.05;4.82;;;;;;;;;;5052334;28;20036;-61
2023/03/25 04:20:22;;;;;;;19.35;3.80;;;;;;;;;;5052167;28;20037;-61
2023/03/25 04:22:50;;;;;;;19.42;4.25;;;;;;;;;;5051324;28;20061;-61
2023/03/25 04:25:16;;;;;;;19.70;4.32;;;;;;;;;;5052057;28;20402;-61
2023/03/25 04:27:44;;;;;;;24.10;4.43;;;;;;;;;;5051909;28;20041;-61
2023/03/25 04:30:10;;;;;;;19.10;4.45;;;;;;;;;;5051426;28;20070;-62
2023/03/25 04:32:36;;;;;;;27.50;4.50;;;;;;;;;;5052153;28;20033;-62
2023/03/25 04:35:03;;;;;;;22.77;3.88;;;;;;;;;;5051946;28;20798;-62
2023/03/25 04:37:32;;;;;;;23.35;4.75;;;;;;;;;;5051359;28;20044;-62
2023/03/25 04:40:00;;;;;;;19.30;4.43;;;;;;;;;;5051790;28;20395;-62
2023/03/25 04:42:31;;;;;;;24.55;4.60;;;;;;;;;;5051524;28;20049;-62
2023/03/25 04:44:57;;;;;;;14.30;3.83;;;;;;;;;;5051013;28;20075;-62
2023/03/25 04:47:24;;;;;;;23.73;4.80;;;;;;;;;;5051692;28;20645;-62
2023/03/25 04:49:50;;;;;;;21.10;4.88;;;;;;;;;;5051732;28;20167;-62
2023/03/25 04:52:16;;;;;;;19.98;4.57;;;;;;;;;;5051249;28;20613;-62
2023/03/25 04:54:43;;;;;;;25.30;5.13;;;;;;;;;;5051629;28;20048;-62
2023/03/25 04:57:10;;;;;;;21.67;4.40;;;;;;;;;;5033628;28;20592;-62
2023/03/25 04:59:36;;;;;;;22.10;4.10;;;;;;;;;;5050806;28;20072;-61
2023/03/25 05:02:04;;;;;;;19.13;4.72;;;;;;;;;;5051530;28;20124;-61
2023/03/25 05:04:31;;;;;;;21.92;4.30;;;;;;;;;;5051243;28;20094;-61
2023/03/25 05:06:57;;;;;;;21.35;4.90;;;;;;;;;;5050745;28;20051;-61
2023/03/25 05:09:24;;;;;;;19.90;4.55;;;;;;;;;;5051031;28;20037;-61
2023/03/25 05:11:51;;;;;;;17.00;4.05;;;;;;;;;;5051152;28;20072;-61
2023/03/25 05:14:19;;;;;;;14.82;3.28;;;;;;;;;;5050762;28;20045;-61
2023/03/25 05:16:45;;;;;;;18.85;3.17;;;;;;;;;;5051283;28;20152;-62
2023/03/25 05:19:12;;;;;;;18.63;4.20;;;;;;;;;;5051289;28;20033;-62
2023/03/25 05:21:39;;;;;;;15.65;3.30;;;;;;;;;;5050679;28;20037;-62
2023/03/25 05:24:10;;;;;;;32.17;5.07;;;;;;;;;;5051122;28;20056;-62
2023/03/25 05:26:38;;;;;;;13.07;3.75;;;;;;;;;;5051051;28;20045;-62
2023/03/25 05:29:05;;;;;;;15.75;4.50;;;;;;;;;;5049985;28;20051;-62
2023/03/25 05:31:31;;;;;;;25.05;4.53;;;;;;;;;;5051220;28;20577;-62
2023/03/25 05:33:57;;;;;;;23.02;5.15;;;;;;;;;;5050810;28;20048;-62
2023/03/25 05:36:26;;;;;;;18.17;4.50;;;;;;;;;;5050220;28;20076;-62
2023/03/25 05:38:55;;;;;;;20.25;4.07;;;;;;;;;;5050937;28;20044;-62
2023/03/25 05:41:31;;;;;;;30.10;5.30;;;;;;;;;;5050929;28;20041;-62
2023/03/25 05:43:57;;;;;;;19.98;4.65;;;;;;;;;;5050247;28;20049;-62
2023/03/25 05:46:23;;;;;;;16.90;5.15;;;;;;;;;;5050745;28;20041;-62
2023/03/25 05:48:50;;;;;;;25.73;4.50;;;;;;;;;;5050665;28;20471;-61
2023/03/25 05:51:17;;;;;;;22.65;4.65;;;;;;;;;;5050075;28;20148;-61
2023/03/25 05:53:48;;;;;;;23.25;4.63;;;;;;;;;;5050587;28;20123;-61
2023/03/25 05:56:16;;;;;;;16.83;5.00;;;;;;;;;;5050395;28;20056;-61
2023/03/25 05:58:46;;;;;;;18.63;4.82;;;;;;;;;;5050062;28;20537;-61
2023/03/25 06:01:15;;;;;;;22.05;5.38;;;;;;;;;;5050514;28;20048;-61
2023/03/25 06:03:44;;;;;;;22.65;4.80;;;;;;;;;;5050594;28;20049;-61
2023/03/25 06:06:17;;;;;;;16.40;5.10;;;;;;;;;;5049995;28;20116;-61
2023/03/25 06:08:48;;;;;;;18.55;4.70;;;;;;;;;;5050711;28;20056;-61
2023/03/25 06:11:15;;;;;;;21.33;4.95;;;;;;;;;;5051054;28;20116;-61
2023/03/25 06:13:48;;;;;;;26.75;4.32;;;;;;;;;;5053817;28;20041;-61
2023/03/25 06:16:17;;;;;;;24.23;5.20;;;;;;;;;;5054486;28;20041;-61
2023/03/25 06:18:49;;;;;;;22.33;4.68;;;;;;;;;;5054174;28;20052;-61
2023/03/25 06:21:18;;;;;;;20.88;4.70;;;;;;;;;;5053838;28;20048;-61
2023/03/25 06:23:45;;;;;;;18.25;5.07;;;;;;;;;;5054029;28;20136;-61
2023/03/25 06:26:11;;;;;;;19.52;4.60;;;;;;;;;;5054313;28;20084;-61
2023/03/25 06:28:37;;;;;;;21.05;4.78;;;;;;;;;;5053910;28;20513;-61
2023/03/25 06:31:07;;;;;;;24.60;4.57;;;;;;;;;;5054224;28;20145;-61
2023/03/25 06:33:33;;;;;;;24.42;4.40;;;;;;;;;;5054236;28;20044;-61
2023/03/25 06:35:59;;;;;;;23.80;4.70;;;;;;;;;;5053494;28;20424;-61
2023/03/25 06:38:28;;;;;;;23.25;4.55;;;;;;;;;;5054152;28;20068;-61
2023/03/25 06:40:55;;;;;;;25.48;5.40;;;;;;;;;;5053804;28;20120;-61
2023/03/25 06:43:21;;;;;;;25.20;4.13;;;;;;;;;;5053489;28;20167;-61
2023/03/25 06:45:50;;;;;;;19.17;4.40;;;;;;;;;;5053946;28;20041;-61
2023/03/25 06:48:16;;;;;;;21.38;3.95;;;;;;;;;;5054099;28;20064;-61
2023/03/25 06:50:44;;;;;;;24.13;3.72;;;;;;;;;;5053269;28;20770;-61
2023/03/25 06:53:10;;;;;;;21.88;4.07;;;;;;;;;;5054040;28;20044;-61
2023/03/25 06:55:37;;;;;;;17.90;3.35;;;;;;;;;;5053743;28;20474;-61
2023/03/25 06:58:03;;;;;;;23.88;4.25;;;;;;;;;;5053198;28;20041;-61
2023/03/25 07:00:29;;;;;;;25.77;4.13;;;;;;;;;;5052425;28;20044;-61
2023/03/25 07:02:57;;;;;;;21.42;3.67;;;;;;;;;;5053653;28;20114;-61
2023/03/25 07:05:23;;;;;;;20.15;3.42;;;;;;;;;;5052487;28;20048;-61
2023/03/25 07:07:49;;;;;;;17.33;3.45;;;;;;;;;;5053571;28;20526;-61
2023/03/25 07:10:15;;;;;;;30.08;4.47;;;;;;;;;;5053313;28;20041;-61
2023/03/25 07:12:41;;;;;;;22.35;3.60;;;;;;;;;;5052847;28;20174;-61
2023/03/25 07:15:08;;;;;;;32.33;4.57;;;;;;;;;;5053246;28;20037;-61
2023/03/25 07:17:34;;;;;;;22.35;4.15;;;;;;;;;;5053255;28;20115;-61
2023/03/25 07:20:00;;;;;;;24.35;4.10;;;;;;;;;;5052517;28;20040;-61
2023/03/25 07:22:26;;;;;;;17.35;3.90;;;;;;;;;;5052277;28;20411;-61
2023/03/25 07:24:52;;;;;;;21.27;4.30;;;;;;;;;;5052399;28;20044;-61
2023/03/25 07:27:18;;;;;;;24.88;3.90;;;;;;;;;;5052536;28;20496;-61
2023/03/25 07:29:44;;;;;;;30.25;3.97;;;;;;;;;;5053099;28;20123;-61
2023/03/25 07:32:10;;;;;;;25.02;3.90;;;;;;;;;;5052825;28;20400;-61
2023/03/25 07:34:37;;;;;;;30.27;3.97;;;;;;;;;;5052388;28;20051;-61
2023/03/25 07:37:03;;;;;;;31.27;4.72;;;;;;;;;;5052784;28;20044;-61
2023/03/25 07:39:29;;;;;;;25.67;3.92;;;;;;;;;;5052967;28;20045;-61
2023/03/25 07:41:55;;;;;;;29.85;4.72;;;;;;;;;;5051969;28;20121;-61
2023/03/25 07:44:21;;;;;;;27.38;4.68;;;;;;;;;;5053241;28;20119;-61
2023/03/25 07:46:48;;;;;;;35.75;5.13;;;;;;;;;;5052661;28;20041;-61
2023/03/25 07:49:15;;;;;;;23.23;3.28;;;;;;;;;;5052071;28;20045;-61
2023/03/25 07:51:41;;;;;;;27.35;3.63;;;;;;;;;;5052909;28;20497;-61
2023/03/25 07:54:07;;;;;;;23.17;3.25;;;;;;;;;;5052703;28;20098;-62
2023/03/25 07:56:33;;;;;;;21.15;3.38;;;;;;;;;;5051978;28;20048;-61
2023/03/25 07:59:00;;;;;;;21.70;3.13;;;;;;;;;;5052738;28;20039;-61
2023/03/25 08:01:26;;;;;;;23.40;3.42;;;;;;;;;;5052611;28;20037;-61
2023/03/25 08:03:52;;;;;;;13.88;2.28;;;;;;;;;;5051753;28;20471;-61
2023/03/25 08:06:18;;;;;;;16.25;3.00;;;;;;;;;;5052515;28;20045;-62
2023/03/25 08:08:44;;;;;;;19.38;3.13;;;;;;;;;;5052631;28;20416;-62
2023/03/25 08:11:10;;;;;;;24.45;3.38;;;;;;;;;;5051613;28;20045;-62
2023/03/25 08:13:36;;;;;;;20.50;3.35;;;;;;;;;;5052600;28;20120;-62
2023/03/25 08:16:02;;;;;;;20.23;2.80;;;;;;;;;;5052392;28;20048;-62
2023/03/25 08:18:29;;;;;;;19.42;3.15;;;;;;;;;;5033791;28;20040;-62
2023/03/25 08:20:55;;;;;;;27.48;3.70;;;;;;;;;;5052343;28;20045;-61
2023/03/25 08:23:21;;;;;;;16.25;2.85;;;;;;;;;;5051684;28;20053;-61
2023/03/25 08:25:48;;;;;;;27.27;4.40;;;;;;;;;;5051286;28;20045;-61
2023/03/25 08:28:21;;;;;;;25.27;4.10;;;;;;;;;;5052080;28;20098;-61
2023/03/25 08:30:48;;;;;;;24.23;3.63;;;;;;;;;;5051939;28;20049;-61
2023/03/25 08:33:15;;;;;;;28.92;4.00;;;;;;;;;;5051155;28;20048;-61
2023/03/25 08:35:41;;;;;;;25.90;4.65;;;;;;;;;;5051464;28;20120;-61
2023/03/25 08:38:08;;;;;;;22.15;4.28;;;;;;;;;;5051708;28;20041;-61
2023/03/25 08:40:34;;;;;;;26.15;4.43;;;;;;;;;;5050863;28;20060;-61
2023/03/25 08:43:02;;;;;;;29.95;3.63;;;;;;;;;;5051676;28;20037;-61
2023/03/25 08:45:30;;;;;;;31.92;3.50;;;;;;;;;;5051605;28;20041;-61
2023/03/25 08:47:56;;;;;;;20.88;3.70;;;;;;;;;;5051004;28;20047;-61
2023/03/25 08:50:22;;;;;;;24.02;4.60;;;;;;;;;;5051503;28;20470;-61
2023/03/25 08:52:48;;;;;;;25.00;4.65;;;;;;;;;;5051624;28;20040;-61
2023/03/25 08:55:15;;;;;;;28.58;4.25;;;;;;;;;;5050603;28;20078;-61
2023/03/25 08:57:41;;;;;;;22.55;4.07;;;;;;;;;;5051446;28;20045;-61
2023/03/25 09:00:15;;;;;;;25.05;3.55;;;;;;;;;;5051140;28;20073;-61
2023/03/25 09:02:41;;;;;;;31.55;4.05;;;;;;;;;;5050392;28;20073;-61
2023/03/25 09:05:09;;;;;;;29.02;3.85;;;;;;;;;;5051320;28;20036;-61
2023/03/25 09:07:35;;;;;;;21.38;3.30;;;;;;;;;;5051396;28;20037;-61
2023/03/25 09:10:02;;;;;;;21.83;3.50;;;;;;;;;;5050704;28;20095;-61
2023/03/25 09:12:29;;;;;;;20.00;3.85;;;;;;;;;;5051517;28;20041;-61
2023/03/25 09:14:55;;;;;;;26.13;4.40;;;;;;;;;;5050913;28;20049;-61
2023/03/25 09:17:21;;;;;;;22.98;3.30;;;;;;;;;;5050691;28;20530;-61
2023/03/25 09:19:47;;;;;;;25.35;3.75;;;;;;;;;;5051057;28;20129;-61
2023/03/25 09:22:14;;;;;;;18.77;4.15;;;;;;;;;;5050568;28;20087;-61
2023/03/25 09:24:43;;;;;;;24.02;2.75;;;;;;;;;;5050498;28;20426;-61
2023/03/25 09:27:09;;;;;;;23.40;3.53;;;;;;;;;;5050740;28;20053;-61
2023/03/25 09:29:35;;;;;;;19.80;3.42;;;;;;;;;;5050643;28;20045;-61
2023/03/25 09:32:01;;;;;;;17.30;3.05;;;;;;;;;;5050515;28;20052;-61
2023/03/25 09:34:28;;;;;;;21.52;3.05;;;;;;;;;;5050501;28;20427;-61
2023/03/25 09:36:54;;;;;;;22.85;4.13;;;;;;;;;;5050788;28;20048;-61
2023/03/25 09:39:21;;;;;;;24.42;4.07;;;;;;;;;;5050703;28;20557;-61
2023/03/25 09:42:05;;;;;;;21.88;3.80;;;;;;;;;;5049995;28;20033;-61
2023/03/25 09:44:50;;;;;;;21.38;3.47;;;;;;;;;;5050680;28;20123;-61
2023/03/25 09:47:18;;;;;;;23.40;3.35;;;;;;;;;;5049281;28;20800;-61
2023/03/25 09:49:48;;;;;;;24.67;3.90;;;;;;;;;;5050605;28;20098;-61
2023/03/25 09:52:16;;;;;;;22.27;3.10;;;;;;;;;;5050325;28;20123;-61
2023/03/25 09:54:54;;;;;;;25.83;3.83;;;;;;;;;;5050079;28;20527;-61
2023/03/25 09:57:22;;;;;;;23.00;3.65;;;;;;;;;;5050526;28;20049;-61
2023/03/25 09:59:49;;;;;;;19.17;3.08;;;;;;;;;;5050666;28;20037;-61
2023/03/25 10:02:25;;;;;;;19.40;3.20;;;;;;;;;;5050081;28;20033;-61
2023/03/25 10:05:10;;;;;;;20.80;3.05;;;;;;;;;;5050633;28;20041;-61
2023/03/25 10:07:45;;;;;;;19.67;3.53;;;;;;;;;;5050599;28;20426;-61
2023/03/25 10:10:12;;;;;;;21.25;3.65;;;;;;;;;;5049926;28;20048;-61
2023/03/25 10:12:57;;;;;;;25.25;4.07;;;;;;;;;;5050563;28;20039;-61
2023/03/25 10:15:23;;;;;;;21.20;3.70;;;;;;;;;;5050404;28;20589;-61
2023/03/25 10:17:55;;;;;;;22.25;4.90;;;;;;;;;;5049884;28;20083;-61
2023/03/25 10:20:30;;;;;;;23.02;3.85;;;;;;;;;;5050372;28;20037;-61
2023/03/25 10:23:07;;;;;;;19.88;3.28;;;;;;;;;;5049290;28;20111;-61
2023/03/25 10:25:37;;;;;;;19.85;3.60;;;;;;;;;;5049671;28;20080;-61
2023/03/25 10:28:04;;;;;;;16.98;3.08;;;;;;;;;;5050189;28;20049;-61
2023/03/25 10:30:34;;;;;;;18.23;3.38;;;;;;;;;;5050242;28;20041;-61
2023/03/25 10:33:02;;;;;;;21.02;3.03;;;;;;;;;;5049629;28;20097;-61
2023/03/25 10:35:29;;;;;;;18.33;3.00;;;;;;;;;;5050306;28;20477;-61
2023/03/25 10:38:00;;;;;;;25.85;3.30;;;;;;;;;;5050139;28;20094;-61
2023/03/25 10:40:52;;;;;;;18.70;2.83;;;;;;;;;;5049559;28;20048;-61
2023/03/25 10:43:23;;;;;;;17.33;2.90;;;;;;;;;;5048633;28;20048;-61
2023/03/25 10:45:51;;;;;;;20.55;2.97;;;;;;;;;;5050346;28;20056;-61
2023/03/25 10:48:26;;;;;;;21.75;3.55;;;;;;;;;;5049412;28;20491;-61
2023/03/25 10:50:55;;;;;;;26.20;4.05;;;;;;;;;;5049577;28;20053;-61
2023/03/25 10:53:25;;;;;;;20.88;3.50;;;;;;;;;;5032071;28;20380;-61
2023/03/25 10:56:09;;;;;;;19.95;3.17;;;;;;;;;;5049500;28;20092;-61
2023/03/25 10:58:36;;;;;;;21.27;3.22;;;;;;;;;;5052511;28;20589;-61
2023/03/25 11:01:09;;;;;;;20.73;3.53;;;;;;;;;;5052941;28;20039;-61
2023/03/25 11:03:36;;;;;;;19.50;3.08;;;;;;;;;;5053633;28;20060;-61
2023/03/25 11:06:02;;;;;;;19.90;2.97;;;;;;;;;;5053719;28;20426;-61
2023/03/25 11:08:28;;;;;;;18.15;3.08;;;;;;;;;;5052811;28;20503;-61
2023/03/25 11:10:56;;;;;;;19.52;3.08;;;;;;;;;;5053414;28;20041;-61
2023/03/25 11:13:29;;;;;;;20.80;3.58;;;;;;;;;;5053479;28;20049;-61
2023/03/25 11:15:58;;;;;;;19.13;3.10;;;;;;;;;;5052698;28;20073;-61
2023/03/25 11:18:35;;;;;;;15.80;2.90;;;;;;;;;;5053471;28;20037;-61
2023/03/25 11:21:07;;;;;;;17.40;3.45;;;;;;;;;;5053235;28;20040;-61
2023/03/25 11:23:33;;;;;;;19.55;3.38;;;;;;;;;;5052259;28;20076;-61
2023/03/25 11:26:22;;;;;;;23.83;3.72;;;;;;;;;;5053342;28;20041;-61
2023/03/25 11:28:53;;;;;;;18.48;3.53;;;;;;;;;;5050055;28;20048;-61
2023/03/25 11:31:23;;;;;;;13.75;2.40;;;;;;;;;;5052536;28;20051;-61
2023/03/25 11:34:04;;;;;;;20.70;2.92;;;;;;;;;;5053242;28;20080;-61
2023/03/25 11:36:51;;;;;;;18.05;3.42;;;;;;;;;;5052611;28;20080;-61
2023/03/25 11:39:38;;;;;;;19.08;3.22;;;;;;;;;;5051925;28;20072;-61
2023/03/25 11:42:16;;;;;;;15.27;2.70;;;;;;;;;;5053031;28;20506;-61
2023/03/25 11:44:49;;;;;;;18.25;3.05;;;;;;;;;;5052752;28;20041;-61
2023/03/25 11:47:18;;;;;;;18.20;2.97;;;;;;;;;;5052055;28;20150;-61
2023/03/25 11:49:48;;;;;;;15.57;2.63;;;;;;;;;;5052318;28;20049;-61
2023/03/25 11:52:18;;;;;;;13.75;2.58;;;;;;;;;;5052768;28;20037;-61
2023/03/25 11:54:44;;;;;;;17.77;3.22;;;;;;;;;;5052208;28;20364;-61
2023/03/25 11:57:13;;;;;;;13.02;2.60;;;;;;;;;;5052626;28;20138;-61
2023/03/25 11:59:44;;;;;;;15.10;2.45;;;;;;;;;;5052609;28;20098;-61
2023/03/25 12:02:22;;;;;;;12.32;2.80;;;;;;;;;;5052018;28;20145;-61
2023/03/25 12:05:18;;;;;;;15.50;2.90;;;;;;;;;;5052610;28;20041;-61
2023/03/25 12:07:48;;;;;;;19.42;3.55;;;;;;;;;;5051061;28;20056;-61
2023/03/25 12:10:27;;;;;;;24.08;3.55;;;;;;;;;;5051614;28;20037;-61
2023/03/25 12:12:53;;;;;;;17.48;3.55;;;;;;;;;;5052328;28;20041;-61
2023/03/25 12:15:42;;;;;;;19.02;3.00;;;;;;;;;;5051628;28;20088;-61
2023/03/25 12:18:12;;;;;;;16.08;2.90;;;;;;;;;;5048812;28;20045;-61
2023/03/25 12:20:47;;;;;;;14.65;2.67;;;;;;;;;;5052025;28;20036;-61
2023/03/25 12:23:13;;;;;;;19.13;2.70;;;;;;;;;;5051135;28;20053;-61
2023/03/25 12:25:45;;;;;;;18.35;2.85;;;;;;;;;;5052030;28;20506;-61
2023/03/25 12:28:24;;;;;;;14.23;2.67;;;;;;;;;;5052238;28;20434;-61
2023/03/25 12:31:06;;;;;;;16.35;3.00;;;;;;;;;;5051089;28;20126;-61
2023/03/25 12:33:58;;;;;;;7.65;2.10;;;;;;;;;;5051948;28;20485;-61
2023/03/25 12:36:33;;;;;;;14.32;2.50;;;;;;;;;;5050488;28;20056;-61
2023/03/25 12:39:09;;;;;;;14.32;2.47;;;;;;;;;;5051098;28;20716;-61
2023/03/25 12:41:38;;;;;;;15.07;2.22;;;;;;;;;;5051538;28;20066;-61
2023/03/25 12:44:04;;;;;;;12.68;2.38;;;;;;;;;;5051698;28;20037;-61
2023/03/25 12:46:49;;;;;;;14.10;2.45;;;;;;;;;;5051092;28;20049;-61
2023/03/25 12:49:30;;;;;;;13.32;2.20;;;;;;;;;;5051332;28;20045;-61
2023/03/25 12:51:56;;;;;;;12.57;2.13;;;;;;;;;;5051300;28;20098;-61
2023/03/25 12:54:41;;;;;;;15.88;2.70;;;;;;;;;;5051434;28;20037;-61
2023/03/25 12:57:10;;;;;;;12.48;2.50;;;;;;;;;;5051545;28;20071;-61
2023/03/25 12:59:54;;;;;;;16.05;2.70;;;;;;;;;;5050869;28;20187;-61
2023/03/25 13:02:32;;;;;;;12.45;2.47;;;;;;;;;;5051466;28;20041;-61
2023/03/25 13:05:05;;;;;;;14.73;2.40;;;;;;;;;;5051443;28;20041;-61
2023/03/25 13:07:44;;;;;;;16.08;2.70;;;;;;;;;;5050876;28;20052;-61
2023/03/25 13:10:21;;;;;;;14.52;2.75;;;;;;;;;;5050687;28;20048;-61
2023/03/25 13:12:53;;;;;;;15.02;2.22;;;;;;;;;;5051229;28;20178;-61
2023/03/25 13:15:19;;;;;;;16.58;2.95;;;;;;;;;;5050417;28;20041;-61
2023/03/25 13:17:56;;;;;;;16.20;2.35;;;;;;;;;;5051133;28;20088;-61
2023/03/25 13:20:24;;;;;;;11.15;2.13;;;;;;;;;;5050626;28;20033;-62
2023/03/25 13:23:01;;;;;;;9.25;1.88;;;;;;;;;;5049719;28;20056;-62
2023/03/25 13:25:39;;;;;;;14.00;2.50;;;;;;;;;;5050946;28;20455;-62
2023/03/25 13:28:06;;;;;;;15.30;1.80;;;;;;;;;;5050777;28;20414;-62
2023/03/25 13:30:35;;;;;;;14.73;2.20;;;;;;;;;;5050331;28;20046;-62
2023/03/25 13:33:12;;;;;;;14.77;2.58;;;;;;;;;;5050789;28;20094;-62
2023/03/25 13:35:47;;;;;;;10.70;2.35;;;;;;;;;;5050720;28;20045;-62
2023/03/25 13:38:16;;;;;;;17.38;2.53;;;;;;;;;;5050253;28;20037;-62
2023/03/25 13:40:46;;;;;;;12.82;2.35;;;;;;;;;;5050790;28;20072;-62
2023/03/25 13:43:18;;;;;;;13.18;2.28;;;;;;;;;;5050727;28;20437;-62
2023/03/25 13:45:44;;;;;;;14.15;2.33;;;;;;;;;;5050009;28;20044;-62
2023/03/25 13:48:10;;;;;;;17.80;3.10;;;;;;;;;;5050450;28;20067;-62
2023/03/25 13:50:36;;;;;;;9.25;1.98;;;;;;;;;;5050566;28;20473;-62
2023/03/25 13:53:15;;;;;;;15.85;2.08;;;;;;;;;;5050215;28;20068;-62
2023/03/25 13:55:44;;;;;;;11.23;1.67;;;;;;;;;;5050651;28;20037;-61
2023/03/25 13:58:15;;;;;;;12.18;1.90;;;;;;;;;;5050682;28;20079;-61
2023/03/25 14:00:41;;;;;;;9.55;1.90;;;;;;;;;;5049960;28;20469;-61
2023/03/25 14:03:07;;;;;;;10.07;2.70;;;;;;;;;;5050658;28;20045;-61
2023/03/25 14:05:48;;;;;;;16.65;2.25;;;;;;;;;;5050648;28;20051;-61
2023/03/25 14:08:30;;;;;;;16.42;2.35;;;;;;;;;;5050036;28;20037;-61
2023/03/25 14:11:11;;;;;;;10.80;2.15;;;;;;;;;;5050420;28;20044;-61
2023/03/25 14:13:40;;;;;;;16.58;2.40;;;;;;;;;;5050007;28;20092;-61
2023/03/25 14:16:08;;;;;;;13.98;2.17;;;;;;;;;;5050364;28;20127;-61
2023/03/25 14:18:45;;;;;;;15.05;2.17;;;;;;;;;;5050348;28;20041;-61
2023/03/25 14:21:21;;;;;;;15.02;2.38;;;;;;;;;;5049610;28;20052;-61
2023/03/25 14:23:47;;;;;;;9.45;1.92;;;;;;;;;;5050010;28;20056;-61
2023/03/25 14:26:16;;;;;;;12.68;2.47;;;;;;;;;;5050258;28;20171;-61
2023/03/25 14:28:43;;;;;;;11.18;2.15;;;;;;;;;;5049421;28;20059;-61
2023/03/25 14:31:21;;;;;;;9.05;2.00;;;;;;;;;;5049982;28;20049;-62
2023/03/25 14:34:00;;;;;;;11.23;1.75;;;;;;;;;;5053440;28;20044;-62
2023/03/25 14:36:39;;;;;;;9.10;1.80;;;;;;;;;;5053254;28;20040;-62
2023/03/25 14:39:31;;;;;;;13.68;1.90;;;;;;;;;;5053773;28;20124;-62
2023/03/25 14:41:57;;;;;;;10.20;1.55;;;;;;;;;;5035986;28;20369;-62
2023/03/25 14:44:28;;;;;;;7.60;1.52;;;;;;;;;;5053087;28;20048;-62
2023/03/25 14:47:21;;;;;;;10.23;1.85;;;;;;;;;;5054154;28;20045;-62